createdAt,value
2023-04-15T00:02:29.606Z,76.50
2023-04-15T00:06:11.415Z,76.50
2023-04-15T00:09:55.221Z,76.50
2023-04-15T00:13:37.879Z,76.60
2023-04-15T00:17:19.705Z,76.70
2023-04-15T00:21:02.200Z,76.70
2023-04-15T00:24:44.140Z,76.70
2023-04-15T00:28:26.664Z,76.70
2023-04-15T00:32:09.186Z,76.80
2023-04-15T00:35:51.085Z,76.80
2023-04-15T00:39:32.917Z,76.80
2023-04-15T00:43:14.902Z,76.80
2023-04-15T00:46:57.531Z,76.90
2023-04-15T00:50:39.232Z,76.90
2023-04-15T00:54:21.609Z,76.90
2023-04-15T00:58:03.317Z,76.90
2023-04-15T01:01:45.642Z,76.90
2023-04-15T01:05:28.269Z,76.80
2023-04-15T01:09:11.117Z,76.80
2023-04-15T01:12:53.062Z,76.90
2023-04-15T01:16:34.836Z,76.90
2023-04-15T01:20:17.189Z,76.90
2023-04-15T01:23:59.455Z,76.90
2023-04-15T01:27:42.519Z,76.90
2023-04-15T01:31:24.342Z,76.80
2023-04-15T01:35:06.448Z,76.80
2023-04-15T01:38:48.494Z,76.80
2023-04-15T01:42:30.207Z,76.80
2023-04-15T01:46:11.963Z,76.80
2023-04-15T01:49:53.741Z,76.90
2023-04-15T01:53:35.826Z,76.90
2023-04-15T01:57:17.555Z,76.80
2023-04-15T02:00:59.316Z,76.80
2023-04-15T02:04:41.065Z,76.90
2023-04-15T02:08:22.978Z,77.00
2023-04-15T02:12:04.773Z,76.90
2023-04-15T02:15:50.675Z,77.00
2023-04-15T02:19:32.585Z,77.00
2023-04-15T02:23:14.528Z,77.00
2023-04-15T02:26:56.409Z,77.00
2023-04-15T02:30:38.153Z,76.80
2023-04-15T02:34:20.024Z,76.80
2023-04-15T02:38:03.181Z,76.80
2023-04-15T02:41:47.655Z,76.70
2023-04-15T02:45:29.430Z,76.60
2023-04-15T02:49:11.279Z,76.60
2023-04-15T02:52:53.035Z,76.50
2023-04-15T02:56:34.896Z,76.60
2023-04-15T03:00:16.751Z,76.60
2023-04-15T03:03:58.545Z,76.60
2023-04-15T03:07:40.953Z,76.70
2023-04-15T03:11:23.175Z,76.70
2023-04-15T03:15:05.223Z,76.60
2023-04-15T03:18:46.951Z,76.70
2023-04-15T03:22:28.701Z,76.70
2023-04-15T03:26:10.386Z,76.70
2023-04-15T03:29:52.182Z,76.80
2023-04-15T03:33:33.869Z,76.70
2023-04-15T03:37:15.575Z,76.70
2023-04-15T03:40:57.281Z,76.70
2023-04-15T03:44:38.984Z,76.70
2023-04-15T03:48:21.085Z,76.60
2023-04-15T03:52:02.841Z,76.60
2023-04-15T03:55:44.897Z,76.60
2023-04-15T03:59:26.673Z,76.50
2023-04-15T04:03:08.989Z,76.50
2023-04-15T04:06:51.041Z,76.50
2023-04-15T04:10:32.869Z,76.40
2023-04-15T04:14:15.085Z,76.40
2023-04-15T04:17:57.083Z,76.30
2023-04-15T04:21:39.682Z,76.30
2023-04-15T04:25:21.397Z,76.30
2023-04-15T04:29:03.327Z,76.30
2023-04-15T04:32:45.403Z,76.30
2023-04-15T04:36:27.128Z,76.30
2023-04-15T04:40:09.510Z,76.30
2023-04-15T04:43:51.365Z,76.30
2023-04-15T04:47:33.117Z,76.20
2023-04-15T04:51:15.035Z,76.30
2023-04-15T04:54:56.879Z,76.30
2023-04-15T04:58:38.599Z,76.30
2023-04-15T05:02:20.546Z,76.30
2023-04-15T05:06:06.084Z,76.30
2023-04-15T05:09:47.947Z,76.30
2023-04-15T05:13:30.132Z,76.30
2023-04-15T05:17:12.466Z,76.30
2023-04-15T05:20:54.290Z,76.30
2023-04-15T05:24:36.437Z,76.40
2023-04-15T05:28:18.203Z,76.40
2023-04-15T05:32:00.037Z,76.50
2023-04-15T05:35:41.793Z,76.50
2023-04-15T05:39:23.559Z,76.50
2023-04-15T05:43:05.509Z,76.60
2023-04-15T05:46:47.273Z,76.50
2023-04-15T05:50:29.002Z,76.50
2023-04-15T05:54:10.826Z,76.60
2023-04-15T05:57:52.516Z,76.60
2023-04-15T06:01:35.538Z,76.50
2023-04-15T06:05:18.054Z,76.50
2023-04-15T06:08:59.835Z,76.50
2023-04-15T06:12:41.684Z,76.50
2023-04-15T06:16:23.496Z,76.60
2023-04-15T06:20:05.722Z,76.50
2023-04-15T06:23:47.477Z,76.60
2023-04-15T06:27:29.191Z,76.60
2023-04-15T06:31:11.063Z,76.60
2023-04-15T06:34:52.808Z,76.50
2023-04-15T06:38:34.493Z,76.50
2023-04-15T06:42:16.249Z,76.40
2023-04-15T06:45:58.166Z,76.50
2023-04-15T06:49:40.498Z,76.50
2023-04-15T06:53:22.936Z,76.40
2023-04-15T06:57:07.118Z,76.40
2023-04-15T07:00:49.221Z,76.40
2023-04-15T07:04:31.545Z,76.50
2023-04-15T07:08:13.979Z,76.50
2023-04-15T07:11:55.955Z,76.70
2023-04-15T07:15:37.627Z,76.60
2023-04-15T07:19:19.320Z,76.60
2023-04-15T07:23:01.013Z,76.60
2023-04-15T07:26:42.713Z,76.40
2023-04-15T07:30:24.472Z,76.30
2023-04-15T07:34:07.384Z,76.00
2023-04-15T07:37:49.096Z,75.90
2023-04-15T07:41:31.536Z,75.90
2023-04-15T07:45:13.226Z,75.80
2023-04-15T07:48:54.970Z,75.70
2023-04-15T07:52:39.312Z,75.60
2023-04-15T07:56:21.842Z,75.60
2023-04-15T08:00:07.497Z,75.50
2023-04-15T08:03:49.420Z,75.50
2023-04-15T08:07:31.680Z,75.40
2023-04-15T08:11:13.773Z,75.40
2023-04-15T08:14:56.148Z,75.20
2023-04-15T08:18:37.839Z,75.20
2023-04-15T08:22:20.611Z,75.20
2023-04-15T08:26:03.723Z,74.90
2023-04-15T08:29:45.767Z,74.80
2023-04-15T08:33:28.821Z,74.90
2023-04-15T08:37:11.466Z,74.90
2023-04-15T08:40:56.435Z,74.70
2023-04-15T08:44:38.633Z,74.60
2023-04-15T08:48:21.246Z,74.40
2023-04-15T08:52:04.391Z,74.30
2023-04-15T08:55:51.194Z,74.30
2023-04-15T08:59:32.970Z,74.20
2023-04-15T09:03:14.983Z,74.20
2023-04-15T09:06:57.215Z,74.20
2023-04-15T17:15:58.817Z,39.00
2023-04-15T17:19:40.692Z,41.90
2023-04-15T17:23:22.605Z,42.50
2023-04-15T17:27:04.457Z,43.10
2023-04-15T17:30:46.335Z,43.40
2023-04-15T17:34:28.655Z,43.70
2023-04-15T17:38:30.662Z,44.00
2023-04-15T17:42:12.992Z,44.20
2023-04-15T17:45:55.177Z,44.10
2023-04-15T17:49:37.886Z,44.10
2023-04-15T17:53:19.802Z,44.20
2023-04-15T17:57:03.263Z,44.40
2023-04-15T18:00:45.128Z,44.50
2023-04-15T18:04:27.142Z,44.60
2023-04-15T18:08:09.177Z,44.60
2023-04-15T18:11:50.971Z,44.50
2023-04-15T18:15:33.318Z,44.50
2023-04-15T18:19:15.626Z,44.60
2023-04-15T18:22:57.692Z,44.90
2023-04-15T18:26:39.504Z,45.20
2023-04-15T18:30:21.444Z,45.50
2023-04-15T18:34:07.268Z,45.80
2023-04-15T18:37:49.150Z,46.00
2023-04-15T18:41:31.011Z,46.30
2023-04-15T18:45:12.754Z,46.50
2023-04-15T18:48:54.448Z,46.70
2023-04-15T18:52:36.390Z,47.00
2023-04-15T18:56:18.113Z,47.20
2023-04-15T19:00:00.250Z,47.30
2023-04-15T19:03:42.116Z,47.60
2023-04-15T19:07:24.044Z,48.00
2023-04-15T19:11:05.769Z,48.20
2023-04-15T19:14:47.510Z,48.50
2023-04-15T19:18:29.203Z,48.70
2023-04-15T19:22:11.346Z,48.90
2023-04-15T19:25:53.226Z,49.10
2023-04-15T19:29:35.027Z,49.20
2023-04-15T19:33:16.828Z,49.40
2023-04-15T19:36:58.657Z,49.60
2023-04-15T19:40:40.594Z,49.70
2023-04-15T19:44:22.415Z,49.90
2023-04-15T19:48:06.110Z,50.00
2023-04-15T19:51:50.078Z,50.20
2023-04-15T19:55:32.304Z,50.40
2023-04-15T19:59:14.020Z,50.60
2023-04-15T20:02:56.562Z,50.90
2023-04-15T20:06:38.374Z,51.10
2023-04-15T20:10:21.467Z,51.40
2023-04-15T20:14:03.212Z,51.60
2023-04-15T20:17:44.955Z,51.70
2023-04-15T20:21:27.089Z,52.00
2023-04-15T20:25:09.388Z,52.20
2023-04-15T20:28:51.560Z,52.40
2023-04-15T20:32:36.980Z,52.50
2023-04-15T20:36:18.824Z,52.70
2023-04-15T20:40:01.243Z,53.00
2023-04-15T20:43:43.433Z,53.00
2023-04-15T20:47:25.559Z,53.20
2023-04-15T20:51:07.474Z,53.50
2023-04-15T20:54:49.968Z,53.80
2023-04-15T20:58:31.672Z,54.00
2023-04-15T21:02:13.561Z,54.10
2023-04-15T21:05:55.366Z,54.30
2023-04-15T21:09:38.605Z,54.20
2023-04-15T21:13:20.785Z,54.40
2023-04-15T21:17:11.217Z,54.70
2023-04-15T21:21:01.041Z,54.80
2023-04-15T21:24:42.789Z,55.50
2023-04-15T21:28:24.953Z,54.80
2023-04-15T21:32:06.742Z,54.90
2023-04-15T21:35:48.777Z,55.20
2023-04-15T21:39:31.717Z,55.30
2023-04-15T21:43:13.476Z,55.40
2023-04-15T21:46:55.334Z,55.60
2023-04-15T21:50:37.461Z,55.70
2023-04-15T21:54:19.493Z,55.80
2023-04-15T21:58:01.548Z,56.20
2023-04-15T22:01:43.408Z,56.20
2023-04-15T22:05:25.987Z,56.60
2023-04-15T22:09:07.745Z,56.70
2023-04-15T22:12:49.582Z,57.00
2023-04-15T22:16:31.431Z,57.10
2023-04-15T22:20:13.504Z,57.50
2023-04-15T22:24:38.121Z,57.60
2023-04-15T22:27:57.308Z,58.10
2023-04-15T22:31:39.103Z,58.00
2023-04-15T22:35:20.957Z,58.30
2023-04-15T22:39:03.002Z,58.30
2023-04-15T22:42:45.809Z,58.50
2023-04-15T22:46:27.631Z,58.60
2023-04-15T22:50:09.650Z,58.80
2023-04-15T22:53:51.481Z,58.90
2023-04-15T22:57:33.248Z,59.30
2023-04-15T23:01:17.597Z,59.30
2023-04-15T23:04:59.554Z,59.30
2023-04-15T23:08:47.349Z,59.30
2023-04-15T23:12:29.063Z,59.50
2023-04-15T23:16:11.177Z,59.60
2023-04-15T23:19:52.924Z,59.70
2023-04-15T23:23:34.627Z,59.60
2023-04-15T23:27:18.939Z,59.80
2023-04-15T23:31:00.840Z,60.00
2023-04-15T23:34:42.540Z,60.20
2023-04-15T23:38:24.301Z,60.20
2023-04-15T23:42:06.258Z,60.30
2023-04-15T23:45:48.092Z,60.50
2023-04-15T23:49:29.910Z,60.50
2023-04-15T23:53:11.671Z,60.70
2023-04-15T23:56:53.378Z,60.70
